Terminal Aerodrome Forecast
Issued by NWS Cleveland, OH

Home | Current Version | Previous Version | Graphics & Text | Print | Product List | Glossary On
Versions: 1 2 3 4 5 6 7 8 9 10 11 12 13 14 15
000
FTUS41 KCLE 270536
TAFERI
TAF
KERI 270536Z 2706/2806 20010KT P6SM VCSH SCT030 OVC120
      TEMPO 2706/2707 4SM -RA OVC050
     FM270900 20010KT P6SM BKN080
     FM271400 22010G20KT P6SM SCT015
     FM271600 22015G25KT P6SM BKN040
     FM271900 24015G25KT P6SM BKN050
      TEMPO 2800/2803 5SM -TSRA BR OVC035CB
     FM280300 22010KT 6SM BR VCSH OVC050=

USA.gov is the U.S. government's official web portal to all federal, state and local government web resources and services.